Time;durP1;ratioP1;P1;durP2;ratioP2;P2;SDS_P1;SDS_P2;PMS_P1;PMS_P2;Temp;Humidity;BMP_temperature;BMP_pressure;BME280_temperature;BME280_humidity;BME280_pressure;Samples;Min_cycle;Max_cycle;Signal;HPM_P1;HPM_P2
2022/07/25 00:00:55;;;;;;;11.65;4.28;;;;;;;;;;5010675;28;20077;-78
2022/07/25 00:03:21;;;;;;;6.65;4.50;;;;;;;;;;5010602;28;20084;-77
2022/07/25 00:05:48;;;;;;;7.53;5.00;;;;;;;;;;5010796;28;20521;-78
2022/07/25 00:08:14;;;;;;;9.45;5.88;;;;;;;;;;5012097;28;20053;-77
2022/07/25 00:10:41;;;;;;;11.82;5.72;;;;;;;;;;5011296;28;20469;-77
2022/07/25 00:13:07;;;;;;;15.07;6.03;;;;;;;;;;5011432;28;20084;-77
2022/07/25 00:15:34;;;;;;;9.32;6.32;;;;;;;;;;5012288;28;20134;-77
2022/07/25 00:18:00;;;;;;;10.23;5.78;;;;;;;;;;5009521;28;20057;-77
2022/07/25 00:20:27;;;;;;;11.70;5.90;;;;;;;;;;5010496;28;20188;-76
2022/07/25 00:22:53;;;;;;;9.68;6.03;;;;;;;;;;5010277;28;20495;-77
2022/07/25 00:25:19;;;;;;;7.88;6.07;;;;;;;;;;5011110;28;20145;-76
2022/07/25 00:27:48;;;;;;;8.60;6.40;;;;;;;;;;5010751;28;20046;-76
2022/07/25 00:30:15;;;;;;;11.43;7.13;;;;;;;;;;5009578;28;20092;-77
2022/07/25 00:32:41;;;;;;;9.57;6.38;;;;;;;;;;5008451;28;20144;-77
2022/07/25 00:35:08;;;;;;;9.50;6.60;;;;;;;;;;5008809;28;20054;-78
2022/07/25 00:37:34;;;;;;;9.75;6.28;;;;;;;;;;5010571;28;20197;-78
2022/07/25 00:40:00;;;;;;;12.00;6.40;;;;;;;;;;5010835;28;20093;-78
2022/07/25 00:42:27;;;;;;;9.18;6.15;;;;;;;;;;5009813;28;20077;-77
2022/07/25 00:44:53;;;;;;;7.72;6.13;;;;;;;;;;5010360;28;20070;-78
2022/07/25 00:47:20;;;;;;;8.45;6.25;;;;;;;;;;5010199;28;20050;-78
2022/07/25 00:49:46;;;;;;;8.80;6.45;;;;;;;;;;5008244;28;20089;-76
2022/07/25 00:52:13;;;;;;;10.95;6.60;;;;;;;;;;5009948;28;20062;-79
2022/07/25 00:54:39;;;;;;;12.45;6.82;;;;;;;;;;5010238;28;20041;-78
2022/07/25 00:57:06;;;;;;;8.07;6.53;;;;;;;;;;5010859;28;20056;-78
2022/07/25 00:59:32;;;;;;;8.65;6.80;;;;;;;;;;5010659;28;20089;-77
2022/07/25 01:01:59;;;;;;;8.48;6.65;;;;;;;;;;5010239;28;20077;-77
2022/07/25 01:04:29;;;;;;;8.48;6.47;;;;;;;;;;5007113;28;20114;-77
2022/07/25 01:06:55;;;;;;;9.90;6.95;;;;;;;;;;5010058;28;20112;-78
2022/07/25 01:09:22;;;;;;;9.65;6.97;;;;;;;;;;5010250;28;20136;-78
2022/07/25 01:11:48;;;;;;;8.45;6.68;;;;;;;;;;5009512;28;20049;-77
2022/07/25 01:14:15;;;;;;;10.35;6.63;;;;;;;;;;5010109;28;20100;-77
2022/07/25 01:16:41;;;;;;;9.75;7.15;;;;;;;;;;5009803;28;20125;-77
2022/07/25 01:19:07;;;;;;;11.38;6.93;;;;;;;;;;5008846;28;20132;-78
2022/07/25 01:21:38;;;;;;;9.60;6.85;;;;;;;;;;5009771;28;20061;-77
2022/07/25 01:24:05;;;;;;;8.25;6.82;;;;;;;;;;5010173;28;20046;-77
2022/07/25 01:26:32;;;;;;;11.93;6.97;;;;;;;;;;5011045;28;20137;-77
2022/07/25 01:28:58;;;;;;;13.65;6.88;;;;;;;;;;5009935;28;20137;-77
2022/07/25 01:31:25;;;;;;;9.77;7.50;;;;;;;;;;5009554;28;20062;-77
2022/07/25 01:33:51;;;;;;;9.10;6.68;;;;;;;;;;4990844;28;20104;-77
2022/07/25 01:36:18;;;;;;;9.68;7.03;;;;;;;;;;5008382;28;20077;-77
2022/07/25 01:38:44;;;;;;;12.18;7.43;;;;;;;;;;5009520;28;20466;-77
2022/07/25 01:41:11;;;;;;;10.60;6.72;;;;;;;;;;5009490;28;20045;-77
2022/07/25 01:44:08;;;;;;;11.57;7.32;;;;;;;;;;5007761;28;20108;-77
2022/07/25 01:46:35;;;;;;;9.75;7.03;;;;;;;;;;5008923;28;20116;-77
2022/07/25 01:49:03;;;;;;;10.18;6.93;;;;;;;;;;5007959;28;20085;-77
2022/07/25 01:51:29;;;;;;;11.57;6.88;;;;;;;;;;5010892;28;20060;-77
2022/07/25 01:53:56;;;;;;;9.40;6.95;;;;;;;;;;5008694;28;20129;-77
2022/07/25 01:56:22;;;;;;;9.13;6.90;;;;;;;;;;5009588;28;20250;-77
2022/07/25 01:58:49;;;;;;;10.38;6.82;;;;;;;;;;5009353;28;20046;-77
2022/07/25 02:01:15;;;;;;;10.05;7.65;;;;;;;;;;5009291;28;20078;-77
2022/07/25 02:03:44;;;;;;;9.75;6.88;;;;;;;;;;5007937;28;20052;-77
2022/07/25 02:06:11;;;;;;;9.05;6.90;;;;;;;;;;5009364;28;20148;-78
2022/07/25 02:08:37;;;;;;;10.05;6.82;;;;;;;;;;5011512;28;20165;-76
2022/07/25 02:11:04;;;;;;;12.80;7.22;;;;;;;;;;5007822;28;20057;-77
2022/07/25 02:13:30;;;;;;;10.95;6.88;;;;;;;;;;5008720;28;20304;-76
2022/07/25 02:15:56;;;;;;;9.70;6.53;;;;;;;;;;5009062;28;20141;-76
2022/07/25 02:18:23;;;;;;;10.40;7.15;;;;;;;;;;5005911;28;20145;-76
2022/07/25 02:20:49;;;;;;;9.27;6.90;;;;;;;;;;4989651;28;20085;-77
2022/07/25 02:23:16;;;;;;;11.23;6.75;;;;;;;;;;5008745;28;20046;-77
2022/07/25 02:25:42;;;;;;;9.15;7.00;;;;;;;;;;5009131;28;20073;-77
2022/07/25 02:28:09;;;;;;;10.30;6.72;;;;;;;;;;5008636;28;20200;-78
2022/07/25 02:30:36;;;;;;;9.88;6.55;;;;;;;;;;5008188;28;20065;-77
2022/07/25 02:33:02;;;;;;;11.30;6.85;;;;;;;;;;4988612;28;20686;-77
2022/07/25 02:35:29;;;;;;;10.20;7.10;;;;;;;;;;5008236;28;20074;-78
2022/07/25 02:37:55;;;;;;;11.88;7.28;;;;;;;;;;5009297;28;20132;-76
2022/07/25 02:40:22;;;;;;;13.07;7.32;;;;;;;;;;5008624;28;20045;-77
2022/07/25 02:42:48;;;;;;;14.07;7.20;;;;;;;;;;5007754;28;20049;-77
2022/07/25 02:45:14;;;;;;;12.07;7.70;;;;;;;;;;5006851;28;20089;-77
2022/07/25 02:47:41;;;;;;;10.07;6.78;;;;;;;;;;4990744;28;20149;-76
2022/07/25 02:50:08;;;;;;;9.32;7.25;;;;;;;;;;5007154;28;20495;-77
2022/07/25 02:52:40;;;;;;;13.35;7.40;;;;;;;;;;5007513;28;20074;-77
2022/07/25 02:55:06;;;;;;;10.27;6.80;;;;;;;;;;5001926;28;20173;-76
2022/07/25 02:57:35;;;;;;;10.30;6.80;;;;;;;;;;5011155;28;20046;-76
2022/07/25 03:00:02;;;;;;;10.18;6.97;;;;;;;;;;5012031;28;20128;-76
2022/07/25 03:02:28;;;;;;;11.00;8.10;;;;;;;;;;5011110;28;20120;-76
2022/07/25 03:04:55;;;;;;;13.13;8.48;;;;;;;;;;5011485;28;20140;-76
2022/07/25 03:07:21;;;;;;;10.68;7.88;;;;;;;;;;5013232;28;20142;-77
2022/07/25 03:09:48;;;;;;;10.63;7.60;;;;;;;;;;5013261;28;20132;-77
2022/07/25 03:12:14;;;;;;;12.30;7.60;;;;;;;;;;5012035;28;20698;-79
2022/07/25 03:14:40;;;;;;;10.98;6.72;;;;;;;;;;5011282;28;20105;-78
2022/07/25 03:17:07;;;;;;;12.95;7.47;;;;;;;;;;5013411;28;20141;-77
2022/07/25 03:19:33;;;;;;;9.65;7.32;;;;;;;;;;5011047;28;20049;-76
2022/07/25 03:22:00;;;;;;;9.95;7.15;;;;;;;;;;5012417;28;20129;-77
2022/07/25 03:24:26;;;;;;;12.93;7.80;;;;;;;;;;5012359;28;20085;-78
2022/07/25 03:26:53;;;;;;;19.70;8.63;;;;;;;;;;5011859;28;20602;-77
2022/07/25 03:29:20;;;;;;;11.40;8.18;;;;;;;;;;5011656;28;20050;-77
2022/07/25 03:31:46;;;;;;;11.07;7.72;;;;;;;;;;5010171;28;20128;-76
2022/07/25 03:34:13;;;;;;;12.02;7.80;;;;;;;;;;5010628;28;20104;-76
2022/07/25 03:36:39;;;;;;;11.05;7.70;;;;;;;;;;5011148;28;20176;-76
2022/07/25 03:39:05;;;;;;;11.02;7.75;;;;;;;;;;5011919;28;20122;-76
2022/07/25 03:41:32;;;;;;;12.45;7.63;;;;;;;;;;5011846;28;20081;-76
2022/07/25 03:43:58;;;;;;;11.63;7.82;;;;;;;;;;5008788;28;20088;-76
2022/07/25 03:46:25;;;;;;;14.00;8.00;;;;;;;;;;5011617;28;20050;-76
2022/07/25 03:48:51;;;;;;;11.52;8.18;;;;;;;;;;5010126;28;20137;-76
2022/07/25 03:51:18;;;;;;;15.27;8.60;;;;;;;;;;5010233;28;20073;-77
2022/07/25 03:54:02;;;;;;;12.85;8.93;;;;;;;;;;5011666;28;20145;-76
2022/07/25 03:56:30;;;;;;;9.90;7.90;;;;;;;;;;5011938;28;20264;-77
2022/07/25 03:58:57;;;;;;;17.15;8.23;;;;;;;;;;5009812;28;20316;-76
2022/07/25 04:01:23;;;;;;;12.68;8.13;;;;;;;;;;5010734;28;20513;-76
2022/07/25 04:03:52;;;;;;;11.57;8.07;;;;;;;;;;5009724;28;20050;-76
2022/07/25 04:06:18;;;;;;;11.27;7.97;;;;;;;;;;5024630;28;20053;-77
2022/07/25 04:08:45;;;;;;;10.70;7.90;;;;;;;;;;5011426;28;20081;-77
2022/07/25 04:11:11;;;;;;;13.02;7.97;;;;;;;;;;5010699;28;20137;-78
2022/07/25 04:13:37;;;;;;;12.70;8.02;;;;;;;;;;5011083;28;20085;-78
2022/07/25 04:16:04;;;;;;;14.05;8.15;;;;;;;;;;5011457;28;20081;-78
2022/07/25 04:18:31;;;;;;;11.98;7.97;;;;;;;;;;5012275;28;20104;-78
2022/07/25 04:20:59;;;;;;;10.68;7.88;;;;;;;;;;5012737;28;20050;-78
2022/07/25 04:23:27;;;;;;;13.07;7.70;;;;;;;;;;5015113;28;20046;-77
2022/07/25 04:25:54;;;;;;;12.45;7.93;;;;;;;;;;4994708;28;20096;-77
2022/07/25 04:28:20;;;;;;;14.32;7.70;;;;;;;;;;5012491;28;20304;-77
2022/07/25 04:30:47;;;;;;;10.88;7.50;;;;;;;;;;5011472;28;20132;-78
2022/07/25 04:33:14;;;;;;;13.57;8.13;;;;;;;;;;5026188;28;20053;-77
2022/07/25 04:35:40;;;;;;;12.60;8.35;;;;;;;;;;5029696;28;20091;-77
2022/07/25 04:38:07;;;;;;;11.00;7.85;;;;;;;;;;5030472;28;20150;-77
2022/07/25 04:40:37;;;;;;;10.98;8.05;;;;;;;;;;5030243;28;20050;-77
2022/07/25 04:43:04;;;;;;;12.52;7.13;;;;;;;;;;5029436;28;20576;-77
2022/07/25 04:45:31;;;;;;;12.38;7.80;;;;;;;;;;5028195;28;20046;-78
2022/07/25 04:47:57;;;;;;;11.10;7.70;;;;;;;;;;5028374;28;20054;-77
2022/07/25 04:50:24;;;;;;;10.18;7.20;;;;;;;;;;5029716;28;20497;-77
2022/07/25 04:52:50;;;;;;;12.63;7.75;;;;;;;;;;5023057;28;20519;-78
2022/07/25 04:55:17;;;;;;;14.93;7.65;;;;;;;;;;5010586;28;20478;-78
2022/07/25 04:57:43;;;;;;;15.20;7.80;;;;;;;;;;5010617;28;20493;-78
2022/07/25 05:00:10;;;;;;;13.40;7.28;;;;;;;;;;5009933;28;20041;-77
2022/07/25 05:02:36;;;;;;;15.70;7.63;;;;;;;;;;5008940;28;20077;-78
2022/07/25 05:05:04;;;;;;;10.43;7.53;;;;;;;;;;5008220;28;20105;-76
2022/07/25 05:07:30;;;;;;;15.23;7.65;;;;;;;;;;5009756;28;20499;-77
2022/07/25 05:09:57;;;;;;;12.20;7.30;;;;;;;;;;5010343;28;20137;-78
2022/07/25 05:12:23;;;;;;;12.27;7.63;;;;;;;;;;5009424;28;20132;-77
2022/07/25 05:14:49;;;;;;;16.30;7.68;;;;;;;;;;5009360;28;20091;-78
2022/07/25 05:17:16;;;;;;;11.32;6.82;;;;;;;;;;5009032;28;20052;-78
2022/07/25 05:19:42;;;;;;;11.85;7.45;;;;;;;;;;5007919;28;20136;-77
2022/07/25 05:22:09;;;;;;;13.27;7.13;;;;;;;;;;5011875;28;20400;-78
2022/07/25 05:24:35;;;;;;;9.50;6.65;;;;;;;;;;5011182;28;20490;-76
2022/07/25 05:27:03;;;;;;;13.52;8.02;;;;;;;;;;5010224;28;20057;-78
2022/07/25 05:29:30;;;;;;;14.20;7.40;;;;;;;;;;5010135;28;20057;-78
2022/07/25 05:31:57;;;;;;;12.40;8.80;;;;;;;;;;5009298;28;20141;-78
2022/07/25 05:34:23;;;;;;;12.75;7.20;;;;;;;;;;5008450;28;20469;-78
2022/07/25 05:36:50;;;;;;;13.35;6.95;;;;;;;;;;5009529;28;20089;-78
2022/07/25 05:39:16;;;;;;;10.38;7.22;;;;;;;;;;5010629;28;20046;-78
2022/07/25 05:41:42;;;;;;;11.32;6.88;;;;;;;;;;5009550;28;20570;-78
2022/07/25 05:44:09;;;;;;;11.57;7.82;;;;;;;;;;5008874;28;20073;-78
2022/07/25 05:46:36;;;;;;;16.45;7.63;;;;;;;;;;5009348;28;20128;-78
2022/07/25 05:49:02;;;;;;;15.63;7.38;;;;;;;;;;5007666;28;20065;-77
2022/07/25 05:51:29;;;;;;;9.60;6.85;;;;;;;;;;5009768;28;20125;-79
2022/07/25 05:53:55;;;;;;;12.77;7.35;;;;;;;;;;5011038;28;20088;-79
2022/07/25 05:56:21;;;;;;;9.77;7.20;;;;;;;;;;5010355;28;20272;-78
2022/07/25 05:58:48;;;;;;;13.15;6.78;;;;;;;;;;5009692;28;20530;-78
2022/07/25 06:01:14;;;;;;;9.75;7.03;;;;;;;;;;5009541;28;20165;-78
2022/07/25 06:03:41;;;;;;;11.55;6.72;;;;;;;;;;5007864;28;20058;-78
2022/07/25 06:06:07;;;;;;;11.45;6.32;;;;;;;;;;5009418;28;20403;-78
2022/07/25 06:08:34;;;;;;;9.30;6.85;;;;;;;;;;5009417;28;20552;-79
2022/07/25 06:11:06;;;;;;;10.95;6.68;;;;;;;;;;5009207;28;20050;-78
2022/07/25 06:13:33;;;;;;;15.18;6.57;;;;;;;;;;5008910;28;20605;-78
2022/07/25 06:16:00;;;;;;;9.63;6.75;;;;;;;;;;5009698;28;20136;-78
2022/07/25 06:18:26;;;;;;;11.52;6.55;;;;;;;;;;5008167;28;20136;-78
2022/07/25 06:20:53;;;;;;;9.73;6.28;;;;;;;;;;5009125;28;20149;-77
2022/07/25 06:23:19;;;;;;;10.13;6.45;;;;;;;;;;5010416;28;20079;-77
2022/07/25 06:25:47;;;;;;;9.35;6.03;;;;;;;;;;5010151;28;20084;-77
2022/07/25 06:28:15;;;;;;;14.02;6.03;;;;;;;;;;5010052;28;20046;-77
2022/07/25 06:30:44;;;;;;;9.45;5.88;;;;;;;;;;5013895;28;20053;-78
2022/07/25 06:33:10;;;;;;;14.93;5.97;;;;;;;;;;5011283;28;20085;-78
2022/07/25 06:35:37;;;;;;;12.10;6.57;;;;;;;;;;5012361;28;20161;-78
2022/07/25 06:38:03;;;;;;;11.30;6.65;;;;;;;;;;5013466;28;20125;-78
2022/07/25 06:40:30;;;;;;;10.57;6.28;;;;;;;;;;5013037;28;20084;-78
2022/07/25 06:42:56;;;;;;;11.30;6.05;;;;;;;;;;5012821;28;20141;-78
2022/07/25 06:45:23;;;;;;;8.85;5.85;;;;;;;;;;5011964;28;20045;-79
2022/07/25 06:47:50;;;;;;;10.65;6.18;;;;;;;;;;5011010;28;20092;-77
2022/07/25 06:50:17;;;;;;;10.50;5.82;;;;;;;;;;5013173;28;20050;-78
2022/07/25 06:52:46;;;;;;;10.32;6.28;;;;;;;;;;5014134;28;20061;-76
2022/07/25 06:55:14;;;;;;;10.05;5.70;;;;;;;;;;5015260;28;20084;-75
2022/07/25 06:57:41;;;;;;;14.60;6.25;;;;;;;;;;5014080;28;20085;-77
2022/07/25 07:00:09;;;;;;;8.38;6.03;;;;;;;;;;5012523;28;20042;-78
2022/07/25 07:02:54;;;;;;;8.98;5.55;;;;;;;;;;5010909;28;20326;-78
2022/07/25 07:05:22;;;;;;;8.88;5.72;;;;;;;;;;5011826;28;20054;-77
2022/07/25 07:07:48;;;;;;;8.20;5.85;;;;;;;;;;5013185;28;20502;-77
2022/07/25 07:10:16;;;;;;;9.18;5.97;;;;;;;;;;5013872;28;20060;-78
2022/07/25 07:12:43;;;;;;;9.38;5.65;;;;;;;;;;5012145;28;20054;-78
2022/07/25 07:15:10;;;;;;;9.35;6.18;;;;;;;;;;5013483;28;20100;-77
2022/07/25 07:17:36;;;;;;;7.85;5.45;;;;;;;;;;5012751;28;20053;-77
2022/07/25 07:20:04;;;;;;;8.90;5.90;;;;;;;;;;5010538;28;20119;-78
2022/07/25 07:22:30;;;;;;;7.45;5.55;;;;;;;;;;5012134;28;20046;-77
2022/07/25 07:24:57;;;;;;;8.05;5.85;;;;;;;;;;5012453;28;20054;-77
2022/07/25 07:27:24;;;;;;;10.50;5.90;;;;;;;;;;5012224;28;20142;-77
2022/07/25 07:29:50;;;;;;;7.85;5.20;;;;;;;;;;5011700;28;20049;-77
2022/07/25 07:32:16;;;;;;;9.93;5.50;;;;;;;;;;5011171;28;20049;-78
2022/07/25 07:34:43;;;;;;;5.78;4.88;;;;;;;;;;5009776;28;20442;-78
2022/07/25 07:37:09;;;;;;;8.05;5.70;;;;;;;;;;5011861;28;20484;-78
2022/07/25 07:39:36;;;;;;;7.35;5.57;;;;;;;;;;5011866;28;20132;-77
2022/07/25 07:42:02;;;;;;;10.50;5.40;;;;;;;;;;5010668;28;20060;-78
2022/07/25 07:44:29;;;;;;;8.98;5.18;;;;;;;;;;5009315;28;20100;-77
2022/07/25 07:46:55;;;;;;;7.28;5.20;;;;;;;;;;5011085;28;20145;-78
2022/07/25 07:49:22;;;;;;;8.35;5.30;;;;;;;;;;5010556;28;20075;-78
2022/07/25 07:51:48;;;;;;;8.43;5.18;;;;;;;;;;5009799;28;20136;-77
2022/07/25 07:56:59;;;;;;;9.63;5.22;;;;;;;;;;5011943;28;20086;-77
2022/07/25 07:59:26;;;;;;;8.15;5.13;;;;;;;;;;5011677;28;20061;-78
2022/07/25 08:01:52;;;;;;;9.02;5.30;;;;;;;;;;5011094;28;20049;-77
2022/07/25 08:04:19;;;;;;;9.20;5.38;;;;;;;;;;5009616;28;20042;-77
2022/07/25 08:06:45;;;;;;;6.25;5.22;;;;;;;;;;5010231;28;20585;-76
2022/07/25 08:09:11;;;;;;;7.35;5.43;;;;;;;;;;5013167;28;20160;-77
2022/07/25 08:11:38;;;;;;;8.80;5.07;;;;;;;;;;5012140;28;20133;-77
2022/07/25 08:14:05;;;;;;;13.52;5.20;;;;;;;;;;5025679;28;20045;-77
2022/07/25 08:16:33;;;;;;;11.13;5.38;;;;;;;;;;5010900;28;20085;-77
2022/07/25 08:18:59;;;;;;;7.82;4.93;;;;;;;;;;5008542;28;20064;-77
2022/07/25 08:21:25;;;;;;;8.13;5.78;;;;;;;;;;5008402;28;20426;-77
2022/07/25 08:23:52;;;;;;;7.72;5.38;;;;;;;;;;5010960;28;20581;-77
2022/07/25 08:26:18;;;;;;;10.18;5.18;;;;;;;;;;5011380;28;20471;-77
2022/07/25 08:28:45;;;;;;;8.07;5.35;;;;;;;;;;5010821;28;20132;-76
2022/07/25 08:31:12;;;;;;;6.40;5.38;;;;;;;;;;5010298;28;20434;-77
2022/07/25 08:33:41;;;;;;;7.32;5.30;;;;;;;;;;5007918;28;20673;-76
2022/07/25 08:36:09;;;;;;;9.70;5.10;;;;;;;;;;4992775;28;20085;-78
2022/07/25 08:38:36;;;;;;;6.32;5.13;;;;;;;;;;4992902;28;20473;-78
2022/07/25 08:41:02;;;;;;;6.72;5.20;;;;;;;;;;5009918;28;20506;-78
2022/07/25 08:43:31;;;;;;;8.27;4.88;;;;;;;;;;4991995;28;20073;-78
2022/07/25 08:45:59;;;;;;;7.25;4.90;;;;;;;;;;5010275;28;20045;-78
2022/07/25 08:48:25;;;;;;;6.47;5.57;;;;;;;;;;4990565;28;20064;-78
2022/07/25 08:50:53;;;;;;;9.50;5.57;;;;;;;;;;5009057;28;20594;-78
2022/07/25 08:53:20;;;;;;;11.77;5.55;;;;;;;;;;5009037;28;20495;-78
2022/07/25 08:56:03;;;;;;;9.88;5.97;;;;;;;;;;5010220;28;20050;-78
2022/07/25 08:58:38;;;;;;;8.85;5.10;;;;;;;;;;5009347;28;20056;-78
2022/07/25 09:01:05;;;;;;;5.95;4.75;;;;;;;;;;5009426;28;20085;-79
2022/07/25 09:03:32;;;;;;;6.63;5.15;;;;;;;;;;5008243;28;20128;-78
2022/07/25 09:05:59;;;;;;;6.13;4.97;;;;;;;;;;5008305;28;20133;-78
2022/07/25 09:08:25;;;;;;;7.10;5.05;;;;;;;;;;5009507;28;20146;-79
2022/07/25 09:10:52;;;;;;;7.75;5.30;;;;;;;;;;5009325;28;20085;-78
2022/07/25 09:13:20;;;;;;;7.97;5.20;;;;;;;;;;5009526;28;20081;-79
2022/07/25 09:15:48;;;;;;;7.60;5.60;;;;;;;;;;5010270;28;20092;-78
2022/07/25 09:18:16;;;;;;;6.30;5.20;;;;;;;;;;5007739;28;20418;-78
2022/07/25 09:20:43;;;;;;;7.28;5.40;;;;;;;;;;5008758;28;20644;-76
2022/07/25 09:23:11;;;;;;;5.95;4.95;;;;;;;;;;5009888;28;20129;-77
2022/07/25 09:25:38;;;;;;;6.38;5.18;;;;;;;;;;4991303;28;20129;-76
2022/07/25 09:28:08;;;;;;;16.73;5.82;;;;;;;;;;4990295;28;20054;-77
2022/07/25 09:30:35;;;;;;;6.88;4.35;;;;;;;;;;4989082;28;20092;-78
2022/07/25 09:33:01;;;;;;;9.82;5.15;;;;;;;;;;4988626;28;20576;-78
2022/07/25 09:35:32;;;;;;;10.18;4.93;;;;;;;;;;4993448;28;20078;-78
2022/07/25 09:38:13;;;;;;;10.73;5.00;;;;;;;;;;4976845;28;20061;-78
2022/07/25 09:40:40;;;;;;;6.38;4.88;;;;;;;;;;4990069;28;20444;-77
2022/07/25 09:43:07;;;;;;;8.07;4.80;;;;;;;;;;4989070;28;20083;-77
2022/07/25 09:45:33;;;;;;;5.97;4.63;;;;;;;;;;4989783;28;20084;-77
2022/07/25 09:48:01;;;;;;;8.50;5.00;;;;;;;;;;4988878;28;20078;-77
2022/07/25 09:50:28;;;;;;;10.18;4.82;;;;;;;;;;4988948;28;20077;-78
2022/07/25 09:52:55;;;;;;;5.75;4.85;;;;;;;;;;4978664;28;20700;-78
2022/07/25 09:55:22;;;;;;;6.50;4.90;;;;;;;;;;5009311;28;20135;-77
2022/07/25 09:57:49;;;;;;;6.28;4.50;;;;;;;;;;5008942;28;20127;-77
2022/07/25 10:00:22;;;;;;;9.00;4.65;;;;;;;;;;5009789;28;20084;-77
2022/07/25 10:02:51;;;;;;;6.18;4.70;;;;;;;;;;5007492;28;20422;-78
2022/07/25 10:05:18;;;;;;;7.75;4.70;;;;;;;;;;5008356;28;20410;-77
2022/07/25 10:07:45;;;;;;;7.47;4.55;;;;;;;;;;5010440;28;20423;-77
2022/07/25 10:10:27;;;;;;;10.25;4.97;;;;;;;;;;5010253;28;20096;-77
2022/07/25 10:12:58;;;;;;;6.63;4.85;;;;;;;;;;5008449;28;20145;-78
2022/07/25 10:15:25;;;;;;;5.30;4.70;;;;;;;;;;5009626;28;20157;-78
2022/07/25 10:18:00;;;;;;;6.93;4.82;;;;;;;;;;5007561;28;20081;-77
2022/07/25 10:20:27;;;;;;;5.55;4.75;;;;;;;;;;5007966;28;20511;-77
2022/07/25 10:22:54;;;;;;;11.75;4.68;;;;;;;;;;5008719;28;20087;-78
2022/07/25 10:25:22;;;;;;;5.75;4.75;;;;;;;;;;4993760;28;20561;-77
2022/07/25 10:27:51;;;;;;;6.93;4.30;;;;;;;;;;5009007;28;20167;-77
2022/07/25 10:30:19;;;;;;;6.47;4.53;;;;;;;;;;5008554;28;20062;-78
2022/07/25 10:32:50;;;;;;;5.35;4.40;;;;;;;;;;5006802;28;20089;-77
2022/07/25 10:35:16;;;;;;;6.43;4.38;;;;;;;;;;4990861;28;20141;-77
2022/07/25 10:37:44;;;;;;;5.65;4.47;;;;;;;;;;5008547;28;20050;-77
2022/07/25 10:40:24;;;;;;;7.80;4.22;;;;;;;;;;4991909;28;20105;-77
2022/07/25 10:42:54;;;;;;;6.30;4.47;;;;;;;;;;5007894;28;20537;-77
2022/07/25 10:45:24;;;;;;;8.00;5.05;;;;;;;;;;5009810;28;20077;-77
2022/07/25 10:47:54;;;;;;;5.95;4.45;;;;;;;;;;5007455;28;20141;-77
2022/07/25 10:50:22;;;;;;;5.97;4.70;;;;;;;;;;5008339;28;20046;-76
2022/07/25 10:53:08;;;;;;;5.20;4.70;;;;;;;;;;5008601;28;20719;-76
2022/07/25 10:55:35;;;;;;;6.40;4.40;;;;;;;;;;5009210;28;20088;-77
2022/07/25 10:58:05;;;;;;;8.65;4.88;;;;;;;;;;5010633;28;20104;-76
2022/07/25 11:00:46;;;;;;;8.23;4.43;;;;;;;;;;5010343;28;20092;-76
2022/07/25 11:03:13;;;;;;;6.57;4.80;;;;;;;;;;5007262;28;20144;-78
2022/07/25 11:05:45;;;;;;;6.25;4.72;;;;;;;;;;5011662;28;20418;-79
2022/07/25 11:08:11;;;;;;;8.10;4.70;;;;;;;;;;5011997;28;20299;-77
2022/07/25 11:10:51;;;;;;;5.70;4.72;;;;;;;;;;5011001;28;20054;-79
2022/07/25 11:13:18;;;;;;;9.07;4.60;;;;;;;;;;5010990;28;20082;-78
2022/07/25 11:15:45;;;;;;;9.55;5.15;;;;;;;;;;5014114;28;20271;-79
2022/07/25 11:18:11;;;;;;;5.97;4.90;;;;;;;;;;5010567;28;20461;-78
2022/07/25 11:20:38;;;;;;;6.03;5.50;;;;;;;;;;5010868;28;20133;-78
2022/07/25 11:23:05;;;;;;;5.10;4.60;;;;;;;;;;5012073;28;20137;-78
2022/07/25 11:25:31;;;;;;;5.20;4.70;;;;;;;;;;5012659;28;20046;-78
2022/07/25 11:27:58;;;;;;;5.60;4.72;;;;;;;;;;5011398;28;20046;-78
2022/07/25 11:30:29;;;;;;;7.00;4.93;;;;;;;;;;5011652;28;20073;-79
2022/07/25 11:32:56;;;;;;;10.05;5.00;;;;;;;;;;5009449;28;20137;-77
2022/07/25 11:35:30;;;;;;;5.82;4.60;;;;;;;;;;5010925;28;20069;-78
2022/07/25 11:38:00;;;;;;;5.18;4.50;;;;;;;;;;5011879;28;20057;-78
2022/07/25 11:40:27;;;;;;;5.53;4.65;;;;;;;;;;5011742;28;20089;-78
2022/07/25 11:42:58;;;;;;;6.13;4.60;;;;;;;;;;5010283;28;20050;-78
2022/07/25 11:45:25;;;;;;;5.05;4.65;;;;;;;;;;5011901;28;20181;-77
2022/07/25 11:48:05;;;;;;;11.73;4.90;;;;;;;;;;5010163;28;20136;-78
2022/07/25 11:50:32;;;;;;;5.88;4.75;;;;;;;;;;5010694;28;20069;-78
2022/07/25 11:53:00;;;;;;;6.07;4.57;;;;;;;;;;5011296;28;20092;-78
2022/07/25 11:55:31;;;;;;;6.13;4.55;;;;;;;;;;5011889;28;20581;-78
2022/07/25 11:58:01;;;;;;;11.50;4.50;;;;;;;;;;5011284;28;20145;-79
2022/07/25 12:00:28;;;;;;;5.15;4.65;;;;;;;;;;5012187;28;20049;-78
2022/07/25 12:03:04;;;;;;;5.57;4.32;;;;;;;;;;5009451;28;20131;-78
2022/07/25 12:05:31;;;;;;;7.75;4.88;;;;;;;;;;5010480;28;20411;-78
2022/07/25 12:08:06;;;;;;;8.48;4.45;;;;;;;;;;5010483;28;20570;-79
2022/07/25 12:10:34;;;;;;;7.97;4.65;;;;;;;;;;5011650;28;20082;-78
2022/07/25 12:13:02;;;;;;;6.35;4.90;;;;;;;;;;5023294;28;20074;-79
2022/07/25 12:15:30;;;;;;;6.38;5.60;;;;;;;;;;5024359;28;20467;-79
2022/07/25 12:17:57;;;;;;;6.97;4.63;;;;;;;;;;5010960;28;20466;-78
2022/07/25 12:20:25;;;;;;;7.88;4.72;;;;;;;;;;5010131;28;20100;-78
2022/07/25 12:22:53;;;;;;;12.70;4.65;;;;;;;;;;5010500;28;20497;-78
2022/07/25 12:25:20;;;;;;;7.10;4.90;;;;;;;;;;5011317;28;20073;-77
2022/07/25 12:27:46;;;;;;;9.60;5.05;;;;;;;;;;5009349;28;20085;-78
2022/07/25 12:30:13;;;;;;;14.93;4.97;;;;;;;;;;5011049;28;20594;-78
2022/07/25 12:32:40;;;;;;;4.75;4.20;;;;;;;;;;5009317;28;20077;-77
2022/07/25 12:35:08;;;;;;;7.43;4.55;;;;;;;;;;5008891;28;20117;-77
2022/07/25 12:37:34;;;;;;;10.18;4.93;;;;;;;;;;5011338;28;20302;-77
2022/07/25 12:40:01;;;;;;;6.45;4.80;;;;;;;;;;5011725;28;20102;-78
2022/07/25 12:42:27;;;;;;;5.85;4.60;;;;;;;;;;5012140;28;20160;-77
2022/07/25 12:44:54;;;;;;;10.70;4.90;;;;;;;;;;5011182;28;20137;-77
2022/07/25 12:47:21;;;;;;;7.57;4.88;;;;;;;;;;5011713;28;20514;-77
2022/07/25 12:49:48;;;;;;;5.32;4.40;;;;;;;;;;5009051;28;20491;-77
2022/07/25 12:52:14;;;;;;;9.40;4.60;;;;;;;;;;5009640;28;20124;-77
2022/07/25 12:54:40;;;;;;;5.72;4.55;;;;;;;;;;5010338;28;20479;-77
2022/07/25 12:57:08;;;;;;;5.20;4.60;;;;;;;;;;5009938;28;20280;-76
2022/07/25 12:59:35;;;;;;;5.60;4.40;;;;;;;;;;5009752;28;20045;-77
2022/07/25 13:02:01;;;;;;;6.35;4.10;;;;;;;;;;5008125;28;20141;-77
2022/07/25 13:04:28;;;;;;;4.50;4.07;;;;;;;;;;5008252;28;20557;-77
2022/07/25 13:06:55;;;;;;;5.07;4.28;;;;;;;;;;5009651;28;20137;-77
2022/07/25 13:09:21;;;;;;;9.75;4.43;;;;;;;;;;5010419;28;20053;-77
2022/07/25 13:11:48;;;;;;;5.13;4.63;;;;;;;;;;5009289;28;20137;-77
2022/07/25 13:14:15;;;;;;;6.07;4.25;;;;;;;;;;5009321;28;20074;-77
2022/07/25 13:16:42;;;;;;;6.60;4.25;;;;;;;;;;5009389;28;20125;-77
2022/07/25 13:19:08;;;;;;;5.90;4.50;;;;;;;;;;5007901;28;20089;-79
2022/07/25 13:21:36;;;;;;;5.00;4.10;;;;;;;;;;5008186;28;20054;-76
2022/07/25 13:24:03;;;;;;;5.38;4.47;;;;;;;;;;5010882;28;20069;-79
2022/07/25 13:26:29;;;;;;;5.03;4.45;;;;;;;;;;5010007;28;20100;-78
2022/07/25 13:28:56;;;;;;;10.07;4.50;;;;;;;;;;5009442;28;20133;-78
2022/07/25 13:31:25;;;;;;;6.22;4.28;;;;;;;;;;5009144;28;20085;-78
2022/07/25 13:33:52;;;;;;;4.28;3.88;;;;;;;;;;5008302;28;20506;-78
2022/07/25 13:36:18;;;;;;;5.43;4.40;;;;;;;;;;5009522;28;20081;-78
2022/07/25 13:38:45;;;;;;;5.88;4.90;;;;;;;;;;5011966;28;20077;-78
2022/07/25 13:41:12;;;;;;;5.97;4.80;;;;;;;;;;5009081;28;20050;-76
2022/07/25 13:43:41;;;;;;;6.78;4.82;;;;;;;;;;5007077;28;20056;-76
2022/07/25 13:46:08;;;;;;;5.70;4.68;;;;;;;;;;5009497;28;20073;-77
2022/07/25 13:48:35;;;;;;;10.43;4.68;;;;;;;;;;5007097;28;20497;-77
2022/07/25 13:51:02;;;;;;;5.00;4.50;;;;;;;;;;5008267;28;20124;-77
2022/07/25 13:53:28;;;;;;;7.68;4.50;;;;;;;;;;4991623;28;20148;-77
2022/07/25 13:55:57;;;;;;;8.65;5.50;;;;;;;;;;5009822;28;20129;-77
2022/07/25 13:58:23;;;;;;;6.90;4.70;;;;;;;;;;4991301;28;20050;-77
2022/07/25 14:00:50;;;;;;;5.20;4.70;;;;;;;;;;5009215;28;20460;-78
2022/07/25 14:03:17;;;;;;;6.28;5.10;;;;;;;;;;5007624;28;20045;-78
2022/07/25 14:05:43;;;;;;;7.65;4.90;;;;;;;;;;5008656;28;20085;-77
2022/07/25 14:08:09;;;;;;;8.27;4.72;;;;;;;;;;5009430;28;20318;-77
2022/07/25 14:10:36;;;;;;;6.78;4.68;;;;;;;;;;5008599;28;20133;-77
2022/07/25 14:13:02;;;;;;;8.48;4.80;;;;;;;;;;5008680;28;20054;-77
2022/07/25 14:15:29;;;;;;;5.85;4.55;;;;;;;;;;5009807;28;20057;-78
2022/07/25 14:17:56;;;;;;;6.28;4.70;;;;;;;;;;5007818;28;20053;-78
2022/07/25 14:20:22;;;;;;;8.27;4.68;;;;;;;;;;5008932;28;20077;-79
2022/07/25 14:22:48;;;;;;;4.82;4.35;;;;;;;;;;5009006;28;20133;-77
2022/07/25 14:25:15;;;;;;;7.10;4.35;;;;;;;;;;5026456;28;20077;-79
2022/07/25 14:27:41;;;;;;;8.73;4.18;;;;;;;;;;5014467;28;20046;-79
2022/07/25 14:30:08;;;;;;;5.78;4.35;;;;;;;;;;5009448;28;20152;-78
2022/07/25 14:32:35;;;;;;;4.95;4.15;;;;;;;;;;5009021;28;20093;-79
2022/07/25 14:35:02;;;;;;;5.07;4.20;;;;;;;;;;5007846;28;20045;-78
2022/07/25 14:37:30;;;;;;;6.82;4.32;;;;;;;;;;5010526;28;20121;-77
2022/07/25 14:39:59;;;;;;;7.13;4.07;;;;;;;;;;5008706;28;20081;-77
2022/07/25 14:42:27;;;;;;;6.95;4.28;;;;;;;;;;5008624;28;20049;-77